Dades meteomassalio
Diari Summary for Maig 6, 2017 Units:  Metric    English   Both
« Previous Day
Next Day »
Diari Semanal Mensual Anual Personalitzat
  Maxima: Minima: Mijana:
Temperatura: -17.8 °C -10.8 °C -7.8 °C
Rosada: -17.8 °C -17.2 °C -14.7 °C
Humitat: Humidity % 22 % 48 %
Velocitat del vent: 0 km/h 0 km/h 27.8 km/h
Racha vent: 0 km/h - -
Vent:- - WNW
Pressio: 0 hPa 34154.6 hPa -
Pluja: 12.7 mm    
Historical Graphs
 
 
Tabular Data for Maig 6, 2017
Time Temperature Dew Point Pressure Wind Wind Speed Wind Gust Humidity Rainfall Rate (Hourly) solar Conditions
-17.8 °C -17.8 °C 0 hPa Calm     Humidity % 0 mm SolarRadiationWatts/m^2 W/m2 Conditions
00:04 -9.5 °C -11.6 °C 34154.6 hPa Calm     78 % 0 mm 0.0 W/m2 CLR
00:09 -9.6 °C -11.6 °C 34164.7 hPa Calm     79 % 0 mm 0.0 W/m2 CLR
00:14 -9.7 °C -11.7 °C 34178.3 hPa NW 15.6 km/h 15.6 km/h 79 % 0 mm 0.0 W/m2 CLR
00:19 -9.7 °C -11.6 °C 34178.3 hPa WNW 11.9 km/h 11.9 km/h 80 % 0 mm 0.0 W/m2 CLR
00:24 -9.7 °C -11.6 °C 34178.3 hPa Calm     80 % 0 mm 0.0 W/m2 CLR
00:29 -9.8 °C -11.7 °C 34178.3 hPa Calm     80 % 0 mm 0.0 W/m2 CLR
00:34 -9.8 °C -11.7 °C 34178.3 hPa Calm     80 % 0 mm 0.0 W/m2 CLR
00:39 -9.6 °C -11.3 °C 34178.3 hPa WSW 25.9 km/h 25.9 km/h 82 % 0 mm 0.0 W/m2 CLR
00:44 -9.2 °C -11.1 °C 34188.4 hPa WSW 26.9 km/h 26.9 km/h 80 % 0 mm 0.0 W/m2 CLR
00:49 -9.1 °C -11.1 °C 34188.4 hPa West 32.8 km/h 32.8 km/h 79 % 0 mm 0.0 W/m2 CLR
00:54 -9 °C -11 °C 34188.4 hPa West 15 km/h 15 km/h 79 % 0 mm 0.0 W/m2 CLR
00:59 -9 °C -11.2 °C 34188.4 hPa West 9 km/h 9 km/h 78 % 0 mm 0.0 W/m2 CLR
01:04 -9 °C -11.2 °C 34188.4 hPa Calm     78 % 0 mm 0.0 W/m2 CLR
01:09 -9 °C -11.1 °C 34198.6 hPa Calm     78 % 0 mm 0.0 W/m2 CLR
01:14 -9 °C -11.1 °C 34198.6 hPa Calm     78 % 0 mm 0.0 W/m2 CLR
01:20 -9 °C -11.1 °C 34198.6 hPa Calm     78 % 0 mm 0.0 W/m2 CLR
01:25 -9 °C -11.2 °C 34198.6 hPa Calm     78 % 0 mm 0.0 W/m2 CLR
01:30 -9 °C -11.2 °C 34212.1 hPa Calm     78 % 0 mm 0.0 W/m2 CLR
01:35 -9 °C -11.2 °C 34212.1 hPa Calm     78 % 0 mm 0.0 W/m2 CLR
01:40 -9 °C -11.1 °C 34212.1 hPa Calm     78 % 0 mm 0.0 W/m2 CLR
01:45 -9 °C -11.1 °C 34212.1 hPa Calm     78 % 0 mm 0.0 W/m2 CLR
01:50 -9 °C -11.1 °C 34222.3 hPa Calm     78 % 0 mm 0.0 W/m2 CLR
01:55 -8.9 °C -11 °C 34222.3 hPa WNW 17.9 km/h 17.9 km/h 78 % 0 mm 0.0 W/m2 CLR
02:00 -8.8 °C -11.1 °C 34222.3 hPa WNW 17.9 km/h 17.9 km/h 77 % 0 mm 0.0 W/m2 CLR
02:05 -8.8 °C -11.1 °C 34222.3 hPa NW 15 km/h 15 km/h 77 % 0 mm 0.0 W/m2 CLR
02:10 -8.8 °C -11.1 °C 34235.8 hPa WNW 26.9 km/h 26.9 km/h 77 % 0 mm 0.0 W/m2 CLR
02:15 -8.9 °C -11.2 °C 34235.8 hPa WNW 23.8 km/h 23.8 km/h 77 % 0 mm 0.0 W/m2 CLR
02:20 -8.9 °C -11.1 °C 34235.8 hPa WNW 36.2 km/h 36.2 km/h 78 % 0 mm 0.0 W/m2 CLR
02:25 -9 °C -11.2 °C 34235.8 hPa WNW 29.8 km/h 29.8 km/h 78 % 0 mm 0.0 W/m2 CLR
02:30 -9.1 °C -11.4 °C 34246 hPa WNW 32.8 km/h 32.8 km/h 76 % 0 mm 0.0 W/m2 CLR
02:35 -9.1 °C -11.8 °C 34235.8 hPa NW 57 km/h 57 km/h 72 % 0 mm 0.0 W/m2 CLR
02:40 -9.2 °C -11.8 °C 34246 hPa NNW 62.1 km/h 62.1 km/h 73 % 0 mm 0.0 W/m2 CLR
02:45 -9.5 °C -11.9 °C 34269.7 hPa NW 41.7 km/h 41.7 km/h 75 % 12.7 mm 0.0 W/m2 RA
02:50 -9.6 °C -12.1 °C 34256.2 hPa NW 53.6 km/h 53.6 km/h 74 % 12.7 mm 0.0 W/m2 CLR
02:55 -9.6 °C -12.1 °C 34269.7 hPa NW 54.4 km/h 54.4 km/h 75 % 12.7 mm 0.0 W/m2 CLR
03:00 -9.7 °C -12.1 °C 34269.7 hPa WNW 41.7 km/h 41.7 km/h 75 % 12.7 mm 0.0 W/m2 CLR
03:05 -9.7 °C -12.1 °C 34269.7 hPa NW 38.8 km/h 38.8 km/h 76 % 12.7 mm 0.0 W/m2 CLR
03:10 -9.8 °C -12.1 °C 34279.9 hPa NW 38.8 km/h 38.8 km/h 76 % 12.7 mm 0.0 W/m2 CLR
03:15 -9.8 °C -12.1 °C 34279.9 hPa NW 33.6 km/h 33.6 km/h 77 % 12.7 mm 0.0 W/m2 CLR
03:20 -9.9 °C -12.1 °C 34279.9 hPa WNW 29.8 km/h 29.8 km/h 77 % 12.7 mm 0.0 W/m2 CLR
03:25 -9.9 °C -12.2 °C 34279.9 hPa WNW 26.9 km/h 26.9 km/h 77 % 12.7 mm 0.0 W/m2 CLR
03:30 -9.9 °C -12.2 °C 34279.9 hPa WNW 29.8 km/h 29.8 km/h 77 % 12.7 mm 0.0 W/m2 CLR
03:35 -9.9 °C -12.3 °C 34279.9 hPa WNW 29.8 km/h 29.8 km/h 76 % 12.7 mm 0.0 W/m2 CLR
03:40 -9.9 °C -12.3 °C 34279.9 hPa West 29.8 km/h 29.8 km/h 76 % 0 mm 0.0 W/m2 CLR
03:45 -10 °C -12.3 °C 34279.9 hPa NW 17.9 km/h 17.9 km/h 76 % 0 mm 0.0 W/m2 CLR
03:50 -10.1 °C -12.4 °C 34293.4 hPa WNW 15 km/h 15 km/h 75 % 0 mm 0.0 W/m2 CLR
03:55 -10.1 °C -12.6 °C 34279.9 hPa WNW 20.9 km/h 20.9 km/h 74 % 0 mm 0.0 W/m2 CLR
04:00 -10.1 °C -12.6 °C 34293.4 hPa Calm     74 % 0 mm 0.0 W/m2 CLR
04:05 -10.1 °C -12.7 °C 34279.9 hPa WNW 29.8 km/h 29.8 km/h 73 % 0 mm 0.0 W/m2 CLR
04:10 -10.1 °C -12.8 °C 34279.9 hPa NW 26.9 km/h 26.9 km/h 72 % 0 mm 0.0 W/m2 CLR
04:15 -10.1 °C -12.9 °C 34279.9 hPa Calm     72 % 0 mm 0.0 W/m2 CLR
04:20 -10.2 °C -12.9 °C 34279.9 hPa Calm     72 % 0 mm 0.0 W/m2 CLR
04:25 -10.2 °C -12.9 °C 34279.9 hPa West 23.3 km/h 23.3 km/h 72 % 0 mm 0.0 W/m2 CLR
04:30 -10.2 °C -13.1 °C 34269.7 hPa West 23.3 km/h 23.3 km/h 71 % 0 mm 0.0 W/m2 CLR
04:35 -10.2 °C -13.2 °C 34269.7 hPa West 23.8 km/h 23.8 km/h 70 % 0 mm 0.0 W/m2 CLR
04:40 -10.2 °C -13.2 °C 34269.7 hPa West 17.9 km/h 17.9 km/h 70 % 0 mm 0.0 W/m2 CLR
04:45 -10.2 °C -13.2 °C 34256.2 hPa West 17.9 km/h 17.9 km/h 70 % 0 mm 0.0 W/m2 CLR
04:50 -10.3 °C -13.3 °C 34256.2 hPa WSW 20.8 km/h 20.8 km/h 70 % 0 mm 0.0 W/m2 CLR
04:55 -10.4 °C -13.3 °C 34269.7 hPa West 18.2 km/h 18.2 km/h 70 % 0 mm 0.0 W/m2 CLR
04:56 -10.4 °C -13.3 °C 34269.7 hPa West 17.9 km/h 17.9 km/h 70 % 0 mm 0.0 W/m2 CLR
05:01 -10.3 °C -13.3 °C 34269.7 hPa WNW 20.9 km/h 20.9 km/h 70 % 0 mm 0.0 W/m2 CLR
05:06 -10.3 °C -13.3 °C 34279.9 hPa WNW 15 km/h 15 km/h 70 % 0 mm 0.0 W/m2 CLR
05:11 -10.4 °C -13.4 °C 34279.9 hPa NW 18.2 km/h 18.2 km/h 70 % 0 mm 0.0 W/m2 CLR
05:16 -10.7 °C -13.4 °C 34279.9 hPa West 15 km/h 15 km/h 72 % 0 mm 0.0 W/m2 CLR
05:21 -10.6 °C -13.4 °C 34279.9 hPa West 20.9 km/h 20.9 km/h 72 % 0 mm 0.0 W/m2 CLR
05:26 -10.6 °C -13.4 °C 34279.9 hPa Calm     71 % 0 mm 0.0 W/m2 CLR
05:28 -10.6 °C -13.4 °C 34279.9 hPa Calm     71 % 0 mm 0.0 W/m2 CLR
05:33 -10.7 °C -13.4 °C 34279.9 hPa Calm     72 % 0 mm 0.0 W/m2 CLR
05:38 -10.8 °C -13.6 °C 34279.9 hPa Calm     72 % 0 mm 0.0 W/m2 CLR
05:43 -10.8 °C -13.7 °C 34279.9 hPa WNW 23.8 km/h 23.8 km/h 71 % 0 mm 0.0 W/m2 CLR
05:48 -10.7 °C -13.7 °C 34279.9 hPa WNW 17.9 km/h 17.9 km/h 70 % 0 mm 0.0 W/m2 CLR
05:53 -10.7 °C -13.7 °C 34293.4 hPa West 20.9 km/h 20.9 km/h 70 % 0 mm 0.0 W/m2 CLR
05:58 -10.6 °C -13.8 °C 34293.4 hPa WNW 23.8 km/h 23.8 km/h 68 % 0 mm 0.0 W/m2 CLR
06:03 -10.6 °C -13.9 °C 34293.4 hPa West 26.9 km/h 26.9 km/h 67 % 0 mm 0.0 W/m2 CLR
06:08 -10.5 °C -13.9 °C 34293.4 hPa West 29.8 km/h 29.8 km/h 66 % 0 mm 0.0 W/m2 CLR
06:13 -10.5 °C -13.9 °C 34303.6 hPa WNW 31.1 km/h 31.1 km/h 66 % 0 mm 0.0 W/m2 CLR
06:18 -10.5 °C -13.9 °C 34303.6 hPa WNW 29.8 km/h 29.8 km/h 66 % 0 mm 0.0 W/m2 CLR
06:23 -10.6 °C -13.9 °C 34303.6 hPa WNW 29.8 km/h 29.8 km/h 67 % 0 mm 0.0 W/m2 CLR
06:28 -10.6 °C -13.9 °C 34303.6 hPa WNW 29.8 km/h 29.8 km/h 67 % 0 mm 0.0 W/m2 CLR
06:33 -10.6 °C -13.9 °C 34303.6 hPa West 35.7 km/h 35.7 km/h 67 % 0 mm 0.0 W/m2 CLR
06:38 -10.4 °C -13.8 °C 34303.6 hPa WNW 29.8 km/h 29.8 km/h 66 % 0 mm 0.0 W/m2 CLR
06:43 -10.4 °C -13.8 °C 34313.7 hPa West 26.9 km/h 26.9 km/h 66 % 0 mm 0.0 W/m2 OVC
06:48 -10.4 °C -13.8 °C 34313.7 hPa WNW 29.8 km/h 29.8 km/h 66 % 0 mm 0.0 W/m2 OVC
06:53 -10.4 °C -13.9 °C 34313.7 hPa WNW 26.9 km/h 26.9 km/h 66 % 0 mm 5.0 W/m2 OVC
06:58 -10.6 °C -13.9 °C 34327.3 hPa WNW 23.8 km/h 23.8 km/h 67 % 0 mm 7.0 W/m2 BKN
07:03 -10.7 °C -13.9 °C 34313.7 hPa WNW 23.8 km/h 23.8 km/h 68 % 0 mm 9.0 W/m2 BKN
07:08 -10.7 °C -13.8 °C 34327.3 hPa WNW 23.8 km/h 23.8 km/h 69 % 0 mm 12.0 W/m2 BKN
07:13 -10.7 °C -13.8 °C 34327.3 hPa WNW 20.9 km/h 20.9 km/h 69 % 0 mm 12.0 W/m2 BKN
07:18 -10.7 °C -13.8 °C 34327.3 hPa WNW 18.2 km/h 18.2 km/h 69 % 0 mm 16.0 W/m2 BKN
07:23 -10.8 °C -13.8 °C 34327.3 hPa WNW 18.2 km/h 18.2 km/h 69 % 0 mm 19.0 W/m2 BKN
07:28 -10.7 °C -13.8 °C 34327.3 hPa West 20.9 km/h 20.9 km/h 69 % 0 mm 28.0 W/m2 BKN
07:30 -10.7 °C -13.8 °C 34327.3 hPa West 20.9 km/h 20.9 km/h 68 % 0 mm 35.0 W/m2 BKN
07:35 -10.5 °C -13.7 °C 34327.3 hPa West 17.9 km/h 17.9 km/h 68 % 0 mm 33.0 W/m2 BKN
07:40 -10.4 °C -13.8 °C 34337.4 hPa West 9 km/h 9 km/h 67 % 0 mm 56.0 W/m2 SCT
07:45 -10.3 °C -13.7 °C 34337.4 hPa West 9 km/h 9 km/h 67 % 0 mm 72.0 W/m2 FEW
07:50 -10.3 °C -13.7 °C 34337.4 hPa West 5.1 km/h 5.1 km/h 67 % 0 mm 86.0 W/m2 CLR
07:55 -10.3 °C -13.7 °C 34337.4 hPa Calm     67 % 0 mm 104.0 W/m2 CLR
08:00 -10.3 °C -13.7 °C 34337.4 hPa Calm     67 % 0 mm 120.0 W/m2 CLR
08:01 -10.3 °C -13.7 °C 34337.4 hPa SW 11.9 km/h 11.9 km/h 67 % 0 mm 123.0 W/m2 CLR
08:06 -10.3 °C -13.7 °C 34347.6 hPa WSW 9 km/h 9 km/h 66 % 0 mm 141.0 W/m2 CLR
08:11 -10.2 °C -13.7 °C 34347.6 hPa WSW 9 km/h 9 km/h 66 % 0 mm 158.0 W/m2 CLR
08:16 -10.2 °C -13.6 °C 34347.6 hPa SW 3.1 km/h   66 % 0 mm 181.0 W/m2 CLR
08:21 -10.1 °C -13.7 °C 34347.6 hPa West 15 km/h 15 km/h 65 % 7.62 mm 199.0 W/m2 RA
08:26 -9.9 °C -13.6 °C 34347.6 hPa West 20.9 km/h 20.9 km/h 64 % 7.62 mm 216.0 W/m2 CLR
08:31 -9.8 °C -13.7 °C 34347.6 hPa WNW 20.9 km/h 20.9 km/h 63 % 7.62 mm 236.0 W/m2 CLR
08:36 -9.7 °C -13.5 °C 34347.6 hPa WSW 35.7 km/h 35.7 km/h 63 % 7.62 mm 255.0 W/m2 CLR
08:41 -9.6 °C -13.7 °C 34347.6 hPa NW 38.8 km/h 38.8 km/h 62 % 7.62 mm 271.0 W/m2 CLR
08:46 -9.6 °C -13.6 °C 34347.6 hPa NW 23.8 km/h 23.8 km/h 62 % 7.62 mm 287.0 W/m2 CLR
08:51 -9.5 °C -13.5 °C 34347.6 hPa NNW 32.8 km/h 32.8 km/h 62 % 7.62 mm 302.0 W/m2 CLR
08:56 -9.4 °C -13.6 °C 34347.6 hPa WNW 38.8 km/h 38.8 km/h 61 % 7.62 mm 322.0 W/m2 CLR
09:01 -9.3 °C -13.5 °C 34347.6 hPa WNW 31.1 km/h 31.1 km/h 61 % 7.62 mm 338.0 W/m2 CLR
09:06 -9.3 °C -13.6 °C 34347.6 hPa NW 35.7 km/h 35.7 km/h 60 % 7.62 mm 352.0 W/m2 CLR
09:11 -9.2 °C -13.7 °C 34347.6 hPa NW 53.6 km/h 53.6 km/h 59 % 7.62 mm 369.0 W/m2 CLR
09:16 -9.1 °C -13.8 °C 34361.1 hPa NNW 68.6 km/h 68.6 km/h 57 % 7.62 mm 388.0 W/m2 CLR
09:21 -9.1 °C -13.6 °C 34361.1 hPa WNW 44.7 km/h 44.7 km/h 58 % 0 mm 404.0 W/m2 CLR
09:26 -8.9 °C -13.8 °C 34361.1 hPa West 56.6 km/h 56.6 km/h 56 % 0 mm 422.0 W/m2 CLR
09:31 -8.8 °C -14.1 °C 34361.1 hPa NW 77.4 km/h 77.4 km/h 53 % 0 mm 95.0 W/m2 CLR
09:36 -8.7 °C -14.1 °C 34361.1 hPa NW 59.5 km/h 59.5 km/h 53 % 0 mm 148.0 W/m2 CLR
09:41 -8.7 °C -14.1 °C 34361.1 hPa NW 68.6 km/h 68.6 km/h 53 % 0 mm 473.0 W/m2 CLR
09:46 -8.7 °C -14.1 °C 34361.1 hPa WNW 65.5 km/h 65.5 km/h 53 % 0 mm 489.0 W/m2 CLR
09:51 -8.7 °C -14 °C 34361.1 hPa WNW 68.6 km/h 68.6 km/h 53 % 0 mm 503.0 W/m2 CLR
09:56 -8.6 °C -13.8 °C 34361.1 hPa NW 41.7 km/h 41.7 km/h 54 % 0 mm 519.0 W/m2 CLR
10:01 -8.5 °C -14.2 °C 34361.1 hPa NW 74.5 km/h 74.5 km/h 51 % 0 mm 538.0 W/m2 CLR
10:06 -8.5 °C -14.2 °C 34371.3 hPa WNW 65.5 km/h 65.5 km/h 51 % 0 mm 552.0 W/m2 CLR
10:11 -8.4 °C -14.1 °C 34371.3 hPa NNW 65.5 km/h 65.5 km/h 51 % 0 mm 564.0 W/m2 CLR
10:16 -8.3 °C -14 °C 34371.3 hPa West 53.6 km/h 53.6 km/h 51 % 0 mm 578.0 W/m2 CLR
10:21 -8.3 °C -13.9 °C 34371.3 hPa NW 62.6 km/h 62.6 km/h 51 % 0 mm 591.0 W/m2 CLR
10:26 -8.2 °C -14.2 °C 34371.3 hPa NW 72.6 km/h 72.6 km/h 49 % 0 mm 610.0 W/m2 CLR
10:31 -8.1 °C -14.3 °C 34384.8 hPa WNW 71.5 km/h 71.5 km/h 48 % 0 mm 621.0 W/m2 CLR
10:36 -8 °C -14.2 °C 34371.3 hPa NW 62.6 km/h 62.6 km/h 48 % 0 mm 640.0 W/m2 CLR
10:41 -7.8 °C -14.7 °C 34371.3 hPa NW 50.7 km/h 50.7 km/h 44 % 0 mm 650.0 W/m2 CLR
10:46 -7.7 °C -14.8 °C 34384.8 hPa WNW 56.6 km/h 56.6 km/h 43 % 0 mm 670.0 W/m2 CLR
10:51 -7.7 °C -15.1 °C 34384.8 hPa NNW 62.6 km/h 62.6 km/h 42 % 0 mm 684.0 W/m2 CLR
10:56 -7.7 °C -15 °C 34384.8 hPa WNW 64.7 km/h 64.7 km/h 42 % 0 mm 691.0 W/m2 CLR
11:01 -7.6 °C -15.3 °C 34384.8 hPa NW 65.5 km/h 65.5 km/h 40 % 0 mm 705.0 W/m2 CLR
11:06 -7.6 °C -15.3 °C 34384.8 hPa NW 74.5 km/h 74.5 km/h 40 % 0 mm 717.0 W/m2 CLR
11:11 -7.6 °C -15.1 °C 34395 hPa WNW 50.7 km/h 50.7 km/h 41 % 0 mm 729.0 W/m2 CLR
11:16 -7.6 °C -15.3 °C 34395 hPa WNW 77.4 km/h 77.4 km/h 40 % 0 mm 744.0 W/m2 CLR
11:21 -7.7 °C -15.3 °C 34395 hPa West 59.5 km/h 59.5 km/h 40 % 0 mm 756.0 W/m2 CLR
11:27 -7.6 °C -15.1 °C 34395 hPa WNW 59.5 km/h 59.5 km/h 41 % 0 mm 761.0 W/m2 CLR
11:32 -7.4 °C -15.2 °C 34395 hPa WNW 68.6 km/h 68.6 km/h 40 % 0 mm 779.0 W/m2 CLR
11:37 -7.4 °C -15.2 °C 34395 hPa NW 62.6 km/h 62.6 km/h 40 % 0 mm 788.0 W/m2 CLR
11:42 -7.3 °C -15.4 °C 34395 hPa WNW 74.5 km/h 74.5 km/h 38 % 0 mm 795.0 W/m2 CLR
11:47 -7.2 °C -15.6 °C 34395 hPa WNW 65.5 km/h 65.5 km/h 37 % 0 mm 807.0 W/m2 CLR
11:52 -7.3 °C -15.4 °C 34395 hPa WNW 62.6 km/h 62.6 km/h 38 % 0 mm 817.0 W/m2 CLR
11:57 -7.2 °C -15.7 °C 34384.8 hPa NW 54.4 km/h 58.6 km/h 36 % 0 mm 828.0 W/m2 CLR
12:02 -7.1 °C -15.4 °C 34395 hPa NNW 44.7 km/h 44.7 km/h 37 % 0 mm 837.0 W/m2 CLR
12:07 -7 °C -15.6 °C 34384.8 hPa NW 50.7 km/h 50.7 km/h 36 % 0 mm 846.0 W/m2 CLR
12:12 -6.9 °C -15.8 °C 34384.8 hPa West 59.5 km/h 59.5 km/h 35 % 0 mm 854.0 W/m2 CLR
12:17 -6.9 °C -15.7 °C 34395 hPa WNW 50.7 km/h 50.7 km/h 35 % 0 mm 861.0 W/m2 CLR
12:22 -6.8 °C -15.4 °C 34395 hPa NNW 50.7 km/h 50.7 km/h 36 % 0 mm 872.0 W/m2 CLR
12:27 -6.7 °C -16 °C 34395 hPa NW 53.6 km/h 53.6 km/h 33 % 0 mm 879.0 W/m2 CLR
12:32 -6.7 °C -15.3 °C 34395 hPa WNW 44.7 km/h 44.7 km/h 36 % 0 mm 882.0 W/m2 CLR
12:37 -6.6 °C -15.4 °C 34395 hPa NW 50.7 km/h 50.7 km/h 35 % 0 mm 886.0 W/m2 CLR
12:42 -6.6 °C -15.4 °C 34395 hPa NW 50.7 km/h 50.7 km/h 35 % 0 mm 889.0 W/m2 CLR
12:47 -6.5 °C -15.4 °C 34395 hPa NNW 44.7 km/h 44.7 km/h 35 % 0 mm 898.0 W/m2 CLR
12:52 -6.3 °C -15.4 °C 34395 hPa NW 41.7 km/h 41.7 km/h 34 % 0 mm 902.0 W/m2 CLR
12:57 -6 °C -15.4 °C 34395 hPa NNW 49.2 km/h 49.2 km/h 33 % 0 mm 911.0 W/m2 CLR
13:02 -6.2 °C -15.6 °C 34395 hPa North 57 km/h 57 km/h 33 % 0 mm 918.0 W/m2 CLR
13:05 -6.3 °C -15.7 °C 34395 hPa North 41.7 km/h 41.7 km/h 33 % 0 mm 919.0 W/m2 CLR
13:10 -6.3 °C -15.7 °C 34395 hPa WNW 23.8 km/h 23.8 km/h 33 % 0 mm 923.0 W/m2 CLR
13:15 -6.2 °C -16.1 °C 34395 hPa NNW 47.6 km/h 47.6 km/h 31 % 0 mm 925.0 W/m2 CLR
13:20 -6.2 °C -15.8 °C 34395 hPa WNW 41.7 km/h 41.7 km/h 32 % 0 mm 933.0 W/m2 CLR
13:25 -6.2 °C -15.8 °C 34395 hPa NNW 56.6 km/h 56.6 km/h 32 % 0 mm 928.0 W/m2 CLR
13:30 -6.1 °C -15.9 °C 34395 hPa West 38.8 km/h 38.8 km/h 31 % 0 mm 935.0 W/m2 CLR
13:40 -6 °C -16.2 °C 34395 hPa NW 53.6 km/h 53.6 km/h 30 % 0 mm 940.0 W/m2 CLR
13:45 -5.8 °C -16 °C 34395 hPa NNW 41.7 km/h 41.7 km/h 30 % 0 mm 942.0 W/m2 CLR
13:50 -5.8 °C -16 °C 34395 hPa WNW 38.8 km/h 38.8 km/h 30 % 0 mm 942.0 W/m2 CLR
13:55 -5.7 °C -16.4 °C 34395 hPa North 41.7 km/h 41.7 km/h 28 % 0 mm 944.0 W/m2 CLR
14:00 -5.7 °C -16.4 °C 34395 hPa NW 47.6 km/h 47.6 km/h 28 % 0 mm 942.0 W/m2 CLR
14:05 -5.8 °C -16.2 °C 34395 hPa West 44.1 km/h 44.1 km/h 29 % 0 mm 944.0 W/m2 CLR
14:10 -5.7 °C -16.2 °C 34395 hPa WNW 32.8 km/h 32.8 km/h 29 % 0 mm 939.0 W/m2 CLR
14:15 -5.7 °C -15.9 °C 34395 hPa WNW 35.7 km/h 35.7 km/h 30 % 0 mm 940.0 W/m2 CLR
14:20 -5.6 °C -15.8 °C 34395 hPa WNW 31.1 km/h 31.1 km/h 30 % 0 mm 939.0 W/m2 CLR
14:25 -5.4 °C -15.9 °C 34395 hPa NNW 44.7 km/h 44.7 km/h 29 % 0 mm 935.0 W/m2 CLR
14:30 -5.3 °C -16.4 °C 34405.1 hPa NW 35.7 km/h 35.7 km/h 27 % 0 mm 937.0 W/m2 CLR
14:35 -5.2 °C -16.6 °C 34395 hPa WNW 31.1 km/h 31.1 km/h 26 % 0 mm 937.0 W/m2 CLR
14:40 -5.2 °C -16.3 °C 34395 hPa WNW 50.7 km/h 50.7 km/h 27 % 0 mm 930.0 W/m2 CLR
14:45 -5.1 °C -15.9 °C 34395 hPa WNW 38.8 km/h 38.8 km/h 28 % 0 mm 926.0 W/m2 CLR
14:50 -5.1 °C -16.2 °C 34395 hPa WNW 50.7 km/h 50.7 km/h 27 % 0 mm 925.0 W/m2 CLR
14:55 -5.1 °C -16.8 °C 34405.1 hPa NNW 28.5 km/h 28.5 km/h 25 % 0 mm 919.0 W/m2 CLR
15:00 -5.1 °C -16.8 °C 34405.1 hPa NW 44.7 km/h 44.7 km/h 25 % 0 mm 914.0 W/m2 CLR
15:05 -5.1 °C -17.1 °C 34395 hPa North 36.2 km/h 36.2 km/h 24 % 0 mm 911.0 W/m2 CLR
15:10 -5.1 °C -16.8 °C 34405.1 hPa NW 53.6 km/h 53.6 km/h 25 % 0 mm 905.0 W/m2 CLR
15:15 -4.9 °C -16.4 °C 34405.1 hPa West 38.8 km/h 38.8 km/h 26 % 0 mm 865.0 W/m2 CLR
15:20 -5 °C -16.4 °C 34405.1 hPa WNW 31.1 km/h 31.1 km/h 26 % 0 mm 889.0 W/m2 CLR
15:25 -4.9 °C -16.3 °C 34405.1 hPa NNW 32.8 km/h 32.8 km/h 26 % 0 mm 881.0 W/m2 CLR
15:30 -4.8 °C -16.6 °C 34395 hPa WNW 29.8 km/h 29.8 km/h 25 % 0 mm 863.0 W/m2 CLR
15:35 -4.7 °C -16.4 °C 34395 hPa NNE 29.8 km/h 29.8 km/h 25 % 0 mm 861.0 W/m2 CLR
15:40 -4.8 °C -17.2 °C 34395 hPa NNW 44.7 km/h 44.7 km/h 23 % 0 mm 872.0 W/m2 CLR
15:45 -4.9 °C -17 °C 34405.1 hPa SW 26.9 km/h 26.9 km/h 24 % 0 mm 752.0 W/m2 CLR
15:50 -4.8 °C -16.9 °C 34405.1 hPa NW 35.7 km/h 35.7 km/h 24 % 0 mm 870.0 W/m2 CLR
15:55 -4.8 °C -16.6 °C 34405.1 hPa NNW 35.7 km/h 35.7 km/h 25 % 0 mm 854.0 W/m2 CLR
16:00 -4.7 °C -16.4 °C 34405.1 hPa NNW 41.7 km/h 41.7 km/h 25 % 0 mm 717.0 W/m2 CLR
16:05 -4.6 °C -16.7 °C 34405.1 hPa North 51.8 km/h 51.8 km/h 24 % 0 mm 795.0 W/m2 CLR
16:10 -4.7 °C -16.8 °C 34395 hPa NNW 11.9 km/h 11.9 km/h 24 % 0 mm 821.0 W/m2 CLR
16:15 -4.5 °C -16.6 °C 34405.1 hPa NW 50.7 km/h 50.7 km/h 24 % 0 mm 805.0 W/m2 CLR
16:20 -4.6 °C -17.1 °C 34395 hPa WNW 35.7 km/h 35.7 km/h 23 % 0 mm 795.0 W/m2 CLR
16:25 -4.6 °C -17 °C 34395 hPa West 50.7 km/h 50.7 km/h 23 % 0 mm 779.0 W/m2 CLR
16:30 -4.8 °C -16.8 °C 34395 hPa WNW 29.8 km/h 29.8 km/h 24 % 0 mm 749.0 W/m2 CLR
16:35 -4.6 °C -16.7 °C 34395 hPa WNW 38.8 km/h 38.8 km/h 24 % 0 mm 756.0 W/m2 CLR
16:40 -4.4 °C -16.6 °C 34395 hPa WNW 44.7 km/h 44.7 km/h 24 % 0 mm 601.0 W/m2 CLR
16:45 -4.3 °C -16.5 °C 34395 hPa NW 32.8 km/h 32.8 km/h 24 % 0 mm 717.0 W/m2 CLR
16:50 -4.2 °C -16.7 °C 34395 hPa NNW 25.9 km/h 25.9 km/h 23 % 0 mm 715.0 W/m2 CLR
16:55 -4.1 °C -16.6 °C 34395 hPa NW 47.6 km/h 47.6 km/h 23 % 0 mm 689.0 W/m2 CLR
17:00 -4.1 °C -16.6 °C 34395 hPa NNW 41.7 km/h 41.7 km/h 23 % 0 mm 691.0 W/m2 CLR
17:05 -4.3 °C -16.8 °C 34395 hPa NNW 50.7 km/h 50.7 km/h 23 % 0 mm 673.0 W/m2 CLR
17:10 -4.3 °C -16.8 °C 34395 hPa WNW 41.7 km/h 41.7 km/h 23 % 0 mm 664.0 W/m2 CLR
17:16 -4.1 °C -17 °C 34395 hPa WNW 47.6 km/h 47.6 km/h 22 % 0 mm 652.0 W/m2 CLR
17:21 -4.4 °C -16.2 °C 34395 hPa NNW 31.1 km/h 31.1 km/h 25 % 0 mm 635.0 W/m2 CLR
17:26 -4.4 °C -16.9 °C 34395 hPa NW 47.6 km/h 47.6 km/h 23 % 0 mm 624.0 W/m2 CLR
17:31 -4.3 °C -16.8 °C 34395 hPa West 36.2 km/h 36.2 km/h 23 % 0 mm 612.0 W/m2 CLR
17:36 -4.3 °C -16.5 °C 34395 hPa WNW 41.7 km/h 41.7 km/h 24 % 0 mm 592.0 W/m2 CLR
17:41 -4.3 °C -16.2 °C 34384.8 hPa NW 29.8 km/h 29.8 km/h 25 % 0 mm 577.0 W/m2 CLR
17:44 -4.3 °C -16.1 °C 34395 hPa WNW 35.7 km/h 35.7 km/h 25 % 0 mm 566.0 W/m2 CLR
17:49 -4.3 °C -16.4 °C 34395 hPa NW 50.7 km/h 50.7 km/h 24 % 0 mm 554.0 W/m2 CLR
17:55 -4.2 °C -16.4 °C 34395 hPa WNW 29.8 km/h 29.8 km/h 24 % 0 mm 540.0 W/m2 CLR
18:00 -4.3 °C -16.8 °C 34395 hPa NNW 47.6 km/h 47.6 km/h 23 % 0 mm 519.0 W/m2 CLR
18:05 -4.3 °C -16.5 °C 34395 hPa WNW 29.8 km/h 29.8 km/h 24 % 0 mm 506.0 W/m2 CLR
18:10 -4.1 °C -16.6 °C 34395 hPa NNW 38.8 km/h 38.8 km/h 23 % 0 mm 492.0 W/m2 CLR
18:15 -4.2 °C -16.7 °C 34395 hPa West 32.8 km/h 32.8 km/h 23 % 0 mm 476.0 W/m2 CLR
18:20 -4.1 °C -17 °C 34395 hPa NW 38.8 km/h 38.8 km/h 22 % 0 mm 459.0 W/m2 CLR
18:25 -4.3 °C -16.8 °C 34395 hPa NW 38.8 km/h 38.8 km/h 23 % 0 mm 439.0 W/m2 CLR
18:30 -4.3 °C -16.8 °C 34395 hPa WNW 20.9 km/h 20.9 km/h 23 % 0 mm 425.0 W/m2 CLR
18:35 -4.2 °C -16.4 °C 34395 hPa NNW 44.7 km/h 44.7 km/h 24 % 0 mm 408.0 W/m2 CLR
18:40 -4.3 °C -16.2 °C 34395 hPa NNE 32.8 km/h 32.8 km/h 25 % 0 mm 390.0 W/m2 CLR
18:45 -4.3 °C -16.1 °C 34395 hPa NNW 6 km/h 6 km/h 25 % 0 mm 373.0 W/m2 CLR
18:50 -4.2 °C -16.7 °C 34395 hPa WNW 35.7 km/h 35.7 km/h 23 % 0 mm 357.0 W/m2 CLR
18:55 -4.2 °C -16.7 °C 34395 hPa NNW 28.5 km/h 28.5 km/h 23 % 0 mm 339.0 W/m2 CLR
19:00 -4.3 °C -17.1 °C 34395 hPa WNW 23.8 km/h 23.8 km/h 22 % 0 mm 325.0 W/m2 CLR
19:05 -4.3 °C -16.8 °C 34395 hPa NNW 20.9 km/h 21.7 km/h 23 % 0 mm 306.0 W/m2 CLR
19:10 -4.2 °C -16.4 °C 34395 hPa NW 29.8 km/h 29.8 km/h 24 % 0 mm 290.0 W/m2 CLR
19:15 -4.3 °C -16.4 °C 34395 hPa WNW 3.1 km/h 3.1 km/h 24 % 0 mm 274.0 W/m2 CLR
19:20 -4.4 °C -16.8 °C 34395 hPa NNW 47.6 km/h 47.6 km/h 23 % 0 mm 258.0 W/m2 CLR
19:25 -4.5 °C -16.9 °C 34395 hPa WNW 41.7 km/h 41.7 km/h 23 % 0 mm 241.0 W/m2 CLR
19:30 -4.5 °C -16.9 °C 34395 hPa NW 25.9 km/h 25.9 km/h 23 % 0 mm 220.0 W/m2 CLR
19:35 -4.5 °C -16.3 °C 34395 hPa NNW 23.8 km/h 23.8 km/h 25 % 0 mm 200.0 W/m2 CLR
19:40 -4.4 °C -16.3 °C 34395 hPa North 28.5 km/h 28.5 km/h 25 % 0 mm 181.0 W/m2 CLR
19:45 -4.6 °C -16.1 °C 34395 hPa North 29.8 km/h 29.8 km/h 26 % 0 mm 163.0 W/m2 CLR
19:50 -4.7 °C -16.2 °C 34395 hPa NNE 18.2 km/h 22.9 km/h 26 % 0 mm 142.0 W/m2 CLR
19:55 -4.7 °C -15.9 °C 34395 hPa NNE 20.8 km/h 20.8 km/h 27 % 0 mm 125.0 W/m2 CLR
20:00 -4.8 °C -16.2 °C 34395 hPa North 20.9 km/h 20.9 km/h 26 % 0 mm 109.0 W/m2 CLR
20:05 -4.8 °C -15.9 °C 34395 hPa North 18.2 km/h 18.2 km/h 27 % 0 mm 93.0 W/m2 CLR
20:10 -4.8 °C -15.9 °C 34395 hPa NNW 6 km/h 6 km/h 27 % 0 mm 79.0 W/m2 FEW
20:15 -4.8 °C -16.3 °C 34405.1 hPa NNW 7.7 km/h 7.7 km/h 26 % 0 mm 63.0 W/m2 SCT
20:20 -4.9 °C -16.1 °C 34405.1 hPa NNW 23.8 km/h 23.8 km/h 27 % 0 mm 44.0 W/m2 SCT
20:25 -5.1 °C -15.9 °C 34405.1 hPa North 6 km/h 6 km/h 28 % 0 mm 37.0 W/m2 BKN
20:30 -5.2 °C -15.9 °C 34405.1 hPa NNW 3.1 km/h 3.1 km/h 28 % 0 mm 28.0 W/m2 BKN
20:35 -5.3 °C -15.8 °C 34418.7 hPa Calm     29 % 0 mm 18.0 W/m2 BKN
20:40 -5.3 °C -15.9 °C 34418.7 hPa Calm     29 % 0 mm 14.0 W/m2 BKN
20:45 -5.4 °C -15.9 °C 34418.7 hPa Calm     29 % 0 mm 12.0 W/m2 BKN
20:50 -5.7 °C -15.9 °C 34418.7 hPa Calm     30 % 0 mm 11.0 W/m2 BKN
20:55 -5.8 °C -15.7 °C 34418.7 hPa Calm     31 % 0 mm 7.0 W/m2 BKN
21:00 -5.9 °C -15.8 °C 34418.7 hPa Calm     31 % 0 mm 5.0 W/m2 OVC
21:05 -6.1 °C -15.9 °C 34428.8 hPa Calm     31 % 0 mm 0.0 W/m2 OVC
21:10 -6.2 °C -15.9 °C 34428.8 hPa Calm     32 % 0 mm 0.0 W/m2 OVC
21:15 -6.3 °C -15.9 °C 34428.8 hPa Calm     32 % 0 mm 0.0 W/m2 CLR
21:20 -6.4 °C -15.7 °C 34428.8 hPa Calm     33 % 0 mm 0.0 W/m2 CLR
21:25 -6.5 °C -15.8 °C 34428.8 hPa Calm     33 % 0 mm 0.0 W/m2 CLR
21:30 -6.8 °C -15.6 °C 34428.8 hPa Calm     35 % 0 mm 0.0 W/m2 CLR
21:35 -7.1 °C -15.9 °C 34442.4 hPa Calm     35 % 0 mm 0.0 W/m2 CLR
21:40 -7.3 °C -15.6 °C 34442.4 hPa Calm     37 % 0 mm 0.0 W/m2 CLR
21:45 -7.4 °C -15.6 °C 34452.6 hPa Calm     38 % 0 mm 0.0 W/m2 CLR
21:50 -7.6 °C -15.7 °C 34452.6 hPa Calm     38 % 0 mm 0.0 W/m2 CLR
21:55 -7.7 °C -15.8 °C 34452.6 hPa Calm     38 % 0 mm 0.0 W/m2 CLR
22:00 -7.8 °C -15.9 °C 34452.6 hPa Calm     38 % 0 mm 0.0 W/m2 CLR
22:05 -7.9 °C -15.8 °C 34462.7 hPa Calm     39 % 0 mm 0.0 W/m2 CLR
22:10 -8 °C -15.7 °C 34462.7 hPa Calm     40 % 0 mm 0.0 W/m2 CLR
22:15 -8.2 °C -15.6 °C 34462.7 hPa Calm     41 % 0 mm 0.0 W/m2 CLR
22:20 -8.4 °C -15.7 °C 34476.3 hPa Calm     42 % 0 mm 0.0 W/m2 CLR
22:25 -8.7 °C -15.7 °C 34476.3 hPa Calm     43 % 0 mm 0.0 W/m2 CLR
22:30 -8.9 °C -15.9 °C 34476.3 hPa Calm     43 % 0 mm 0.0 W/m2 CLR
22:35 -9.1 °C -15.8 °C 34486.4 hPa Calm     44 % 0 mm 0.0 W/m2 CLR
22:40 -9.2 °C -15.9 °C 34486.4 hPa Calm     44 % 0 mm 0.0 W/m2 CLR
22:45 -9.3 °C -15.8 °C 34486.4 hPa Calm     46 % 0 mm 0.0 W/m2 CLR
22:50 -9.6 °C -15.8 °C 34486.4 hPa Calm     47 % 0 mm 0.0 W/m2 CLR
22:55 -9.7 °C -15.9 °C 34496.6 hPa Calm     47 % 0 mm 0.0 W/m2 CLR
23:00 -9.7 °C -15.9 °C 34496.6 hPa Calm     47 % 0 mm 0.0 W/m2 CLR
23:05 -9.7 °C -16.1 °C 34510.1 hPa Calm     46 % 0 mm 0.0 W/m2 CLR
23:10 -9.8 °C -16.2 °C 34510.1 hPa Calm     46 % 0 mm 0.0 W/m2 CLR
23:15 -9.8 °C -16.2 °C 34510.1 hPa Calm     46 % 0 mm 0.0 W/m2 CLR
23:20 -9.9 °C -16.1 °C 34510.1 hPa Calm     47 % 0 mm 0.0 W/m2 CLR
23:25 -9.9 °C -16.1 °C 34510.1 hPa Calm     47 % 0 mm 0.0 W/m2 CLR
23:30 -9.9 °C -15.9 °C 34520.3 hPa Calm     48 % 0 mm 0.0 W/m2 CLR
23:35 -10.2 °C -16 °C 34520.3 hPa Calm     49 % 0 mm 0.0 W/m2 CLR
23:40 -10.3 °C -16.2 °C 34520.3 hPa Calm     49 % 0 mm 0.0 W/m2 CLR
23:45 -10.4 °C -16.1 °C 34520.3 hPa Calm     50 % 0 mm 0.0 W/m2 CLR
23:51 -10.4 °C -16.1 °C 34520.3 hPa Calm     50 % 0 mm 0.0 W/m2 CLR
23:56 -10.4 °C -15.9 °C 34520.3 hPa Calm     51 % 0 mm 0.0 W/m2 CLR
Lo Temps de Massalio
Compliments of Weather Underground - 1.25 mb